Terminal Aerodrome Forecast
Issued by NWS

Home | Current Version | Previous Version | Text Only | Print | Product List | Glossary On
Versions: 1 2 3 4 5 6 7 8 9 10 11 12 13 14 15 16 17 18 19 20 21 22 23 24 25 26
000
FTUS42 KMFL 050545
TAFTMB
TAF
KTMB 050545Z 0506/0606 14009KT P6SM SCT023 SCT050
      TEMPO 0506/0509 BKN023
     FM051400 15015G21KT P6SM SCT025 SCT150
     FM060000 16009KT P6SM SCT020 BKN150=

USA.gov is the U.S. government's official web portal to all federal, state and local government web resources and services.